Time;durP1;ratioP1;P1;durP2;ratioP2;P2;SDS_P1;SDS_P2;PMS_P1;PMS_P2;Temp;Humidity;BMP_temperature;BMP_pressure;BME280_temperature;BME280_humidity;BME280_pressure;Samples;Min_cycle;Max_cycle;Signal;HPM_P1;HPM_P2
2022/04/27 00:02:37;;;;;;;73.87;43.68;;;;;;;10.19;100.00;99930.88;1621487;88;22080;-78
2022/04/27 00:05:48;;;;;;;75.45;41.92;;;;;;;10.18;100.00;99933.29;1620098;88;21743;-79
2022/04/27 00:08:56;;;;;;;80.55;46.92;;;;;;;10.15;100.00;99942.69;1633667;88;21210;-78
2022/04/27 00:12:20;;;;;;;84.60;49.40;;;;;;;10.13;100.00;99945.29;1632037;88;21780;-79
2022/04/27 00:15:30;;;;;;;68.90;42.40;;;;;;;10.10;100.00;99942.91;1640287;85;21196;-79
2022/04/27 00:18:36;;;;;;;51.85;27.98;;;;;;;10.08;100.00;99947.20;1647428;87;21213;-78
2022/04/27 00:21:43;;;;;;;28.55;18.30;;;;;;;10.07;100.00;99951.46;1643123;87;21193;-78
2022/04/27 00:24:54;;;;;;;26.77;15.23;;;;;;;10.03;100.00;99948.27;1626905;87;21233;-79
2022/04/27 00:28:03;;;;;;;16.73;9.08;;;;;;;9.99;100.00;99950.50;1625503;87;21759;-79
2022/04/27 00:31:15;;;;;;;15.83;7.17;;;;;;;9.96;100.00;99950.86;1646504;85;21727;-78
2022/04/27 00:34:24;;;;;;;14.38;7.45;;;;;;;9.91;100.00;99944.23;1652036;87;21233;-78
2022/04/27 00:37:33;;;;;;;10.30;5.22;;;;;;;9.86;100.00;99947.52;1652274;87;21810;-78
2022/04/27 00:40:44;;;;;;;15.53;4.92;;;;;;;9.82;100.00;99950.78;1619574;87;21202;-79
2022/04/27 00:43:53;;;;;;;13.72;4.92;;;;;;;9.78;100.00;99947.55;1609905;87;21193;-78
2022/04/27 00:47:01;;;;;;;7.65;3.85;;;;;;;9.76;100.00;99957.82;1650616;87;21743;-78
2022/04/27 00:50:11;;;;;;;8.03;4.25;;;;;;;9.76;100.00;99961.07;1624704;87;21170;-79
2022/04/27 00:53:19;;;;;;;11.15;4.20;;;;;;;9.77;100.00;99958.67;1629546;87;22144;-79
2022/04/27 00:56:28;;;;;;;12.20;3.75;;;;;;;9.77;100.00;99954.05;1705147;84;21530;-79
2022/04/27 00:59:35;;;;;;;6.10;3.65;;;;;;;9.79;100.00;99958.84;1700968;84;21720;-78
2022/04/27 01:02:42;;;;;;;8.10;3.90;;;;;;;9.78;100.00;99962.58;1665890;84;21206;-78
2022/04/27 01:05:50;;;;;;;8.25;3.72;;;;;;;9.79;100.00;99967.55;1701129;84;21218;-79
2022/04/27 01:09:00;;;;;;;8.70;3.60;;;;;;;9.76;100.00;99970.11;1700806;84;21219;-79
2022/04/27 01:12:10;;;;;;;6.15;3.45;;;;;;;9.72;100.00;99965.52;1699818;84;21302;-79
2022/04/27 01:15:42;;;;;;;10.00;4.00;;;;;;;9.70;100.00;99968.95;1700081;84;21270;-79
2022/04/27 01:18:50;;;;;;;7.22;3.60;;;;;;;9.68;100.00;99975.61;1705087;84;21760;-78
2022/04/27 01:21:57;;;;;;;6.53;3.70;;;;;;;9.65;100.00;99975.47;1685616;85;21841;-78
2022/04/27 01:25:06;;;;;;;10.60;3.80;;;;;;;9.62;100.00;99979.06;1685675;85;21184;-79
2022/04/27 01:28:14;;;;;;;7.58;3.47;;;;;;;9.59;100.00;99979.41;1651136;85;21259;-78
2022/04/27 01:31:21;;;;;;;10.70;3.85;;;;;;;9.56;100.00;99981.16;1685641;83;21244;-78
2022/04/27 01:34:32;;;;;;;9.13;4.10;;;;;;;9.52;100.00;99980.65;1669897;85;21194;-79
2022/04/27 01:41:05;;;;;;;6.22;3.42;;;;;;;9.45;100.00;99980.48;1685701;85;21235;-78
2022/04/27 01:44:14;;;;;;;7.87;3.98;;;;;;;9.42;100.00;99982.74;1685930;83;21206;-78
2022/04/27 01:47:22;;;;;;;9.95;4.03;;;;;;;9.38;100.00;99984.12;1685396;83;21234;-79
2022/04/27 01:50:29;;;;;;;6.65;4.08;;;;;;;9.33;100.00;99979.19;1650520;85;21181;-79
2022/04/27 01:57:07;;;;;;;9.03;4.62;;;;;;;9.21;100.00;99976.49;1674619;83;21194;-79
2022/04/27 02:00:17;;;;;;;8.33;4.67;;;;;;;9.17;100.00;99984.20;1685505;85;21194;-78
2022/04/27 02:03:27;;;;;;;7.85;3.92;;;;;;;9.12;100.00;99991.19;1684547;84;21807;-79
2022/04/27 02:06:40;;;;;;;7.45;4.25;;;;;;;9.09;100.00;100001.11;1671038;83;21190;-79
2022/04/27 02:09:45;;;;;;;7.50;4.72;;;;;;;9.06;100.00;100002.80;1685653;85;21194;-79
2022/04/27 02:12:52;;;;;;;7.67;4.33;;;;;;;9.01;100.00;100005.20;1685636;83;21222;-80
2022/04/27 02:15:57;;;;;;;12.05;4.80;;;;;;;8.98;100.00;100012.36;1662875;84;21757;-78
2022/04/27 02:19:06;;;;;;;8.88;4.60;;;;;;;8.95;100.00;100010.33;1676053;85;21219;-79
2022/04/27 02:22:13;;;;;;;6.78;4.83;;;;;;;8.94;100.00;100011.88;1704823;82;21266;-79
2022/04/27 02:25:24;;;;;;;8.43;4.75;;;;;;;8.92;100.00;100019.37;1712331;83;21803;-79
2022/04/27 02:28:34;;;;;;;12.00;5.22;;;;;;;8.89;100.00;100016.48;1712920;82;21214;-79
2022/04/27 02:31:40;;;;;;;16.87;5.33;;;;;;;8.88;100.00;100022.94;1712869;82;21219;-79
2022/04/27 02:34:48;;;;;;;18.35;5.67;;;;;;;8.87;100.00;100027.22;1692913;83;22027;-79
2022/04/27 02:37:56;;;;;;;15.63;5.42;;;;;;;8.87;100.00;100027.22;1693947;83;21210;-85
2022/04/27 02:41:03;;;;;;;9.63;4.78;;;;;;;8.86;100.00;100027.73;1712801;83;21186;-80
2022/04/27 02:44:08;;;;;;;15.45;5.90;;;;;;;8.87;100.00;100029.43;1712819;83;21174;-79
2022/04/27 02:47:14;;;;;;;8.60;6.12;;;;;;;8.91;100.00;100036.25;1712768;82;21202;-79
2022/04/27 02:53:47;;;;;;;9.75;5.78;;;;;;;9.06;100.00;100036.39;1711242;82;21193;-79
2022/04/27 02:56:56;;;;;;;10.85;6.40;;;;;;;9.16;100.00;100041.66;1711207;82;21815;-79
2022/04/27 03:00:05;;;;;;;7.47;5.30;;;;;;;9.16;100.00;100043.87;1711238;82;21178;-79
2022/04/27 03:03:13;;;;;;;9.30;5.97;;;;;;;9.14;100.00;100044.57;1711804;83;21249;-78
2022/04/27 03:06:20;;;;;;;17.25;6.95;;;;;;;9.14;100.00;100040.48;1691898;83;21206;-79
2022/04/27 03:09:26;;;;;;;12.73;6.75;;;;;;;9.18;100.00;100043.20;1711959;83;21802;-79
2022/04/27 03:12:31;;;;;;;12.68;7.50;;;;;;;9.25;100.00;100053.41;1712147;83;21221;-79
2022/04/27 03:15:37;;;;;;;7.40;6.55;;;;;;;9.25;100.00;100058.36;1715077;83;21186;-79
2022/04/27 03:18:37;;;;;;;10.75;6.70;;;;;;;9.27;100.00;100058.17;1718256;83;21637;-79
2022/04/27 03:21:37;;;;;;;17.00;8.00;;;;;;;9.31;100.00;100060.38;1715266;83;21312;-79
2022/04/27 03:24:45;;;;;;;15.35;7.53;;;;;;;9.38;100.00;100069.59;1695116;84;21246;-79
2022/04/27 03:27:52;;;;;;;11.55;7.10;;;;;;;9.46;100.00;100070.94;1695764;84;21226;-79
2022/04/27 03:30:57;;;;;;;14.85;7.60;;;;;;;9.54;100.00;100074.66;1696543;84;21160;-79
2022/04/27 03:34:05;;;;;;;10.32;7.62;;;;;;;9.62;100.00;100075.48;1701784;83;21223;-79
2022/04/27 03:37:11;;;;;;;11.75;8.68;;;;;;;9.72;100.00;100084.33;1695032;84;21772;-79
2022/04/27 03:40:16;;;;;;;16.23;9.98;;;;;;;9.86;100.00;100085.98;1696813;84;21610;-79
2022/04/27 03:43:22;;;;;;;18.23;13.58;;;;;;;9.93;100.00;100089.73;1696338;84;21230;-78
2022/04/27 03:46:28;;;;;;;21.73;14.05;;;;;;;9.98;100.00;100099.09;1662111;84;21226;-78
2022/04/27 03:49:35;;;;;;;19.20;14.00;;;;;;;10.01;100.00;100103.84;1659762;86;21185;-78
2022/04/27 03:52:40;;;;;;;21.68;14.35;;;;;;;9.99;100.00;100104.87;1660694;86;21225;-78
2022/04/27 03:55:48;;;;;;;21.07;15.50;;;;;;;10.01;100.00;100116.14;1660721;86;21190;-78
2022/04/27 03:58:54;;;;;;;20.32;13.58;;;;;;;9.99;100.00;100114.45;1660514;86;21193;-78
2022/04/27 04:02:01;;;;;;;26.27;15.83;;;;;;;9.99;100.00;100118.55;1659359;86;21302;-78
2022/04/27 04:05:06;;;;;;;26.27;18.80;;;;;;;9.96;100.00;100120.77;1660274;86;21223;-78
2022/04/27 04:08:13;;;;;;;32.20;20.97;;;;;;;9.87;100.00;100128.14;1658875;86;22158;-79
2022/04/27 04:11:20;;;;;;;34.55;22.42;;;;;;;9.75;100.00;100128.20;1659418;86;21790;-79
2022/04/27 04:14:32;;;;;;;37.55;22.30;;;;;;;9.68;100.00;100125.81;1682476;84;21569;-78
2022/04/27 04:17:44;;;;;;;33.02;22.62;;;;;;;9.69;100.00;100132.49;1693358;84;21231;-79
2022/04/27 04:20:59;;;;;;;31.55;20.88;;;;;;;9.72;100.00;100144.41;1694920;84;21512;-79
2022/04/27 04:24:09;;;;;;;45.67;24.32;;;;;;;9.71;100.00;100149.55;1651026;85;21289;-79
2022/04/27 04:30:38;;;;;;;34.43;22.10;;;;;;;9.72;100.00;100134.85;1703473;81;21243;-79
2022/04/27 04:34:04;;;;;;;35.28;23.47;;;;;;;9.78;100.00;100136.02;1714710;83;21720;-79
2022/04/27 04:37:09;;;;;;;33.70;21.85;;;;;;;9.86;100.00;100137.38;1718453;83;21241;-79
2022/04/27 04:40:16;;;;;;;28.25;21.35;;;;;;;9.95;100.00;100146.40;1717389;83;21197;-79
2022/04/27 04:43:21;;;;;;;27.90;21.50;;;;;;;10.06;100.00;100150.09;1693238;83;21218;-79
2022/04/27 04:46:29;;;;;;;29.90;21.90;;;;;;;10.11;100.00;100150.42;1715763;81;21206;-79
2022/04/27 04:49:38;;;;;;;;;;;;;;;10.21;100.00;100157.06;1682412;82;21194;-79
2022/04/27 04:53:01;;;;;;;30.37;21.68;;;;;;;10.35;100.00;100160.94;1716318;83;20254;-79
2022/04/27 04:56:22;;;;;;;27.60;21.97;;;;;;;10.49;100.00;100167.89;1673890;82;21201;-79
2022/04/27 04:59:42;;;;;;;30.12;21.97;;;;;;;10.67;100.00;100169.48;1695848;82;21209;-79
2022/04/27 05:03:06;;;;;;;26.48;20.23;;;;;;;10.85;100.00;100168.68;1708828;83;21229;-78
2022/04/27 05:06:33;;;;;;;27.80;20.75;;;;;;;10.99;100.00;100181.58;1688203;83;21204;-79
2022/04/27 05:09:47;;;;;;;26.45;19.70;;;;;;;11.13;100.00;100179.09;1704792;83;21190;-78
2022/04/27 05:13:05;;;;;;;23.90;17.60;;;;;;;11.26;100.00;100182.06;1711157;83;21237;-79
2022/04/27 05:16:17;;;;;;;20.23;16.00;;;;;;;11.36;100.00;100188.14;1634861;86;21225;-79
2022/04/27 05:33:37;;;;;;;18.65;13.35;;;;;;;12.07;100.00;100193.29;1833321;76;21183;-79
2022/04/27 05:36:53;;;;;;;16.02;13.85;;;;;;;12.16;100.00;100197.64;1847691;76;21829;-78
2022/04/27 05:39:55;;;;;;;19.35;13.43;;;;;;;12.26;100.00;100219.61;1713950;76;21269;-78
2022/04/27 05:42:43;;;;;;;15.98;13.53;;;;;;;12.33;100.00;100217.47;1852472;75;21153;-79
2022/04/27 05:45:48;;;;;;;17.15;12.63;;;;;;;12.35;100.00;100219.00;1848578;75;21183;-79
2022/04/27 05:48:56;;;;;;;13.32;12.03;;;;;;;12.31;100.00;100216.83;1858830;76;21191;-85
2022/04/27 05:52:10;;;;;;;14.60;11.97;;;;;;;12.27;100.00;100220.45;1673522;85;21804;-85
2022/04/27 05:55:20;;;;;;;22.50;11.68;;;;;;;12.27;100.00;100220.45;1674210;85;21550;-79
2022/04/27 05:58:30;;;;;;;12.25;10.93;;;;;;;12.26;100.00;100227.84;1676803;84;22241;-79
2022/04/27 06:01:39;;;;;;;18.52;10.93;;;;;;;12.24;100.00;100227.19;1674886;85;21240;-79
2022/04/27 06:04:47;;;;;;;15.78;11.30;;;;;;;12.23;100.00;100230.10;1691708;83;21802;-78
2022/04/27 06:07:53;;;;;;;15.13;11.50;;;;;;;12.20;100.00;100233.24;1663273;84;21223;-78
2022/04/27 06:10:59;;;;;;;12.68;11.25;;;;;;;12.16;100.00;100242.36;1669549;84;21197;-79
2022/04/27 06:14:07;;;;;;;12.68;10.63;;;;;;;12.17;100.00;100242.68;1651420;85;21356;-79
2022/04/27 06:17:16;;;;;;;10.80;9.00;;;;;;;12.25;100.00;100252.72;1675050;85;21232;-79
2022/04/27 06:20:22;;;;;;;10.32;8.45;;;;;;;12.32;100.00;100249.53;1673795;85;21695;-78
2022/04/27 06:23:31;;;;;;;8.68;7.70;;;;;;;12.33;100.00;100253.13;1667318;84;21239;-79
2022/04/27 06:26:37;;;;;;;9.53;7.95;;;;;;;12.37;100.00;100258.56;1662367;85;21191;-79
2022/04/27 06:29:44;;;;;;;13.98;6.85;;;;;;;12.38;99.48;100265.26;1670120;85;21245;-79
2022/04/27 06:32:50;;;;;;;8.63;7.25;;;;;;;12.38;98.61;100284.98;1660408;84;21228;-79
2022/04/27 06:35:57;;;;;;;13.10;8.05;;;;;;;12.36;98.17;100267.84;1689682;83;21219;-78
2022/04/27 06:39:07;;;;;;;7.87;7.08;;;;;;;12.38;98.37;100271.27;1687418;83;21235;-85
2022/04/27 06:42:12;;;;;;;11.10;7.20;;;;;;;12.45;97.83;100275.79;1669600;85;21228;-85
2022/04/27 06:45:36;;;;;;;12.40;6.62;;;;;;;12.52;96.74;100272.63;1672227;85;21546;-85
2022/04/27 06:48:58;;;;;;;9.05;7.12;;;;;;;12.57;96.57;100283.04;1691111;84;21211;-85
2022/04/27 06:52:15;;;;;;;8.20;6.00;;;;;;;12.65;95.70;100282.06;1617285;85;21285;-85
2022/04/27 06:55:29;;;;;;;8.08;6.35;;;;;;;12.74;95.93;100284.52;1635228;84;21218;-85
2022/04/27 06:58:50;;;;;;;8.80;5.78;;;;;;;12.85;95.09;100281.83;1687405;84;21684;-84
2022/04/27 07:01:44;;;;;;;5.83;5.22;;;;;;;12.95;93.79;100283.74;1684839;84;21170;-85
2022/04/27 07:04:59;;;;;;;8.80;5.15;;;;;;;13.13;92.59;100276.99;1681468;84;21524;-83
2022/04/27 07:08:04;;;;;;;6.50;5.12;;;;;;;13.34;91.49;100275.66;1686340;84;21238;-85
2022/04/27 07:11:11;;;;;;;7.22;5.47;;;;;;;13.57;89.18;100282.87;1682155;84;21229;-85
2022/04/27 07:14:18;;;;;;;5.62;4.75;;;;;;;13.70;87.10;100283.00;1684569;84;21238;-86
2022/04/27 07:17:23;;;;;;;6.20;4.85;;;;;;;13.83;86.37;100283.09;1686224;84;21203;-86
2022/04/27 07:20:31;;;;;;;6.00;4.25;;;;;;;13.94;85.35;100285.85;1681575;84;21787;-85
2022/04/27 07:23:37;;;;;;;12.70;5.40;;;;;;;13.96;83.46;100288.71;1691080;84;21218;-85
2022/04/27 07:26:43;;;;;;;6.55;4.25;;;;;;;13.96;83.42;100282.36;1684712;84;21213;-86
2022/04/27 07:29:50;;;;;;;4.62;4.20;;;;;;;13.98;84.30;100283.88;1686871;84;21800;-86
2022/04/27 07:32:58;;;;;;;6.35;5.22;;;;;;;14.03;83.73;100292.38;1681851;84;21194;-86
2022/04/27 07:36:03;;;;;;;6.22;4.10;;;;;;;14.09;82.52;100292.62;1684267;84;21826;-84
2022/04/27 07:39:10;;;;;;;5.37;4.33;;;;;;;14.20;82.53;100283.28;1681324;84;21183;-84
2022/04/27 07:42:16;;;;;;;5.65;4.03;;;;;;;14.34;82.04;100282.86;1682918;84;21222;-85
2022/04/27 07:45:21;;;;;;;7.03;4.10;;;;;;;14.41;80.99;100278.27;1684950;85;21829;-84
2022/04/27 07:48:32;;;;;;;4.12;3.75;;;;;;;14.63;80.73;100280.94;1689647;83;21283;-85
2022/04/27 07:51:35;;;;;;;7.05;4.08;;;;;;;14.87;78.92;100284.58;1686463;83;21796;-85
2022/04/27 07:54:36;;;;;;;6.60;3.98;;;;;;;14.93;77.66;100278.25;1708231;82;21212;-84
2022/04/27 07:57:39;;;;;;;4.08;3.15;;;;;;;15.02;77.70;100267.91;1709980;82;21270;-86
2022/04/27 08:00:44;;;;;;;6.15;3.30;;;;;;;15.21;76.52;100275.38;1708542;82;21766;-85
2022/04/27 08:03:44;;;;;;;3.10;2.80;;;;;;;15.23;73.12;100275.16;1708820;83;21223;-85
2022/04/27 08:06:52;;;;;;;4.90;3.40;;;;;;;15.18;73.77;100273.56;1714562;82;21205;-85
2022/04/27 08:09:58;;;;;;;4.42;3.60;;;;;;;15.27;72.85;100275.92;1710863;82;21147;-85
2022/04/27 08:13:05;;;;;;;5.62;3.05;;;;;;;15.41;73.10;100271.82;1702208;82;21231;-85
2022/04/27 08:16:11;;;;;;;3.72;3.02;;;;;;;15.46;69.90;100266.00;1706626;82;21476;-85
2022/04/27 08:19:20;;;;;;;5.50;2.42;;;;;;;15.50;70.33;100269.19;1707699;82;21228;-85
2022/04/27 08:22:27;;;;;;;7.28;2.70;;;;;;;15.60;70.86;100277.89;1702837;82;22279;-85
2022/04/27 08:25:32;;;;;;;5.90;3.08;;;;;;;15.71;67.18;100277.83;1706206;82;21224;-85
2022/04/27 08:28:37;;;;;;;3.80;2.80;;;;;;;15.76;66.50;100279.42;1707579;82;21302;-85
2022/04/27 08:31:44;;;;;;;2.80;2.30;;;;;;;15.83;66.89;100285.80;1710212;83;21791;-85
2022/04/27 08:34:50;;;;;;;6.90;2.70;;;;;;;15.90;67.04;100282.50;1707670;82;21244;-85
2022/04/27 08:37:56;;;;;;;2.67;2.20;;;;;;;15.95;66.17;100282.74;1707518;82;21219;-84
2022/04/27 08:41:01;;;;;;;5.35;3.33;;;;;;;16.03;65.98;100288.02;1713547;83;21749;-84
2022/04/27 08:44:08;;;;;;;3.40;2.70;;;;;;;16.18;64.67;100286.95;1700499;82;21705;-85
2022/04/27 08:47:15;;;;;;;8.23;3.62;;;;;;;16.30;64.26;100281.97;1704597;82;21824;-84
2022/04/27 08:50:32;;;;;;;7.22;3.70;;;;;;;16.33;64.26;100282.08;1703657;82;21165;-85
2022/04/27 08:53:37;;;;;;;3.98;2.60;;;;;;;16.43;64.59;100285.24;1698741;82;21728;-85
2022/04/27 08:56:42;;;;;;;8.43;3.62;;;;;;;16.50;63.45;100281.92;1688596;83;21713;-85
2022/04/27 08:59:48;;;;;;;3.85;3.10;;;;;;;16.56;62.60;100286.60;1685662;83;21215;-84
2022/04/27 09:02:56;;;;;;;4.70;3.10;;;;;;;16.57;61.85;100275.87;1679535;83;21191;-85
2022/04/27 09:06:04;;;;;;;6.05;4.22;;;;;;;16.64;60.97;100288.80;1686967;83;21258;-85
2022/04/27 09:09:13;;;;;;;2.95;2.30;;;;;;;16.64;60.18;100299.31;1691961;83;21199;-85
2022/04/27 09:12:22;;;;;;;3.05;2.17;;;;;;;16.60;59.39;100289.22;1683756;83;21762;-84
2022/04/27 09:15:34;;;;;;;3.77;2.50;;;;;;;16.57;58.15;100297.95;1684585;83;21176;-85
2022/04/27 09:22:21;;;;;;;3.27;2.42;;;;;;;16.66;59.87;100285.30;1680068;84;20209;-86
2022/04/27 09:25:42;;;;;;;3.95;2.42;;;;;;;16.85;58.70;100289.95;1688200;83;21746;-85
2022/04/27 09:28:55;;;;;;;3.00;2.50;;;;;;;16.90;58.19;100290.68;1683404;83;21183;-85
2022/04/27 09:32:06;;;;;;;2.98;2.33;;;;;;;16.94;57.68;100291.91;1689468;83;21243;-85
2022/04/27 09:35:13;;;;;;;4.75;2.30;;;;;;;16.96;56.46;100291.17;1685883;83;21171;-86
2022/04/27 09:38:26;;;;;;;2.77;2.30;;;;;;;16.90;56.51;100298.42;1684003;83;21188;-84
2022/04/27 09:41:49;;;;;;;2.65;2.12;;;;;;;16.94;57.50;100283.62;1686030;83;21792;-84
2022/04/27 09:44:55;;;;;;;4.45;2.00;;;;;;;17.01;55.22;100293.59;1691629;83;21568;-84
2022/04/27 09:48:11;;;;;;;3.20;2.20;;;;;;;17.07;55.79;100289.09;1681855;83;21163;-84
2022/04/27 09:51:21;;;;;;;1.92;1.80;;;;;;;17.24;54.90;100282.55;1689004;83;21227;-84
2022/04/27 09:54:34;;;;;;;5.05;2.08;;;;;;;17.36;54.08;100291.31;1684787;82;21202;-84
2022/04/27 09:57:43;;;;;;;6.65;2.40;;;;;;;17.35;52.59;100285.45;1681963;83;21704;-84
2022/04/27 10:00:50;;;;;;;2.90;2.42;;;;;;;17.36;52.87;100286.29;1684643;83;21206;-85
2022/04/27 10:03:57;;;;;;;5.25;2.50;;;;;;;17.40;53.30;100295.84;1683833;83;21304;-85
2022/04/27 10:07:05;;;;;;;6.17;2.25;;;;;;;17.40;54.20;100304.67;1687001;83;21816;-84
2022/04/27 10:10:05;;;;;;;4.58;2.72;;;;;;;17.38;55.72;100304.36;1688632;83;21203;-85
2022/04/27 10:13:15;;;;;;;2.45;1.82;;;;;;;17.46;54.06;100297.74;1687902;83;21230;-84
2022/04/27 10:16:23;;;;;;;3.40;2.22;;;;;;;17.54;52.45;100300.22;1666534;83;21171;-85
2022/04/27 10:19:31;;;;;;;2.52;2.00;;;;;;;17.49;51.04;100302.80;1690798;83;21798;-84
2022/04/27 10:22:40;;;;;;;1.95;1.60;;;;;;;17.41;50.91;100305.86;1684999;84;21556;-85
2022/04/27 10:25:46;;;;;;;1.82;1.60;;;;;;;17.33;50.09;100304.19;1684968;84;21183;-84
2022/04/27 10:28:57;;;;;;;8.63;1.85;;;;;;;17.26;50.38;100296.98;1686506;83;21810;-82
2022/04/27 10:32:05;;;;;;;3.40;1.40;;;;;;;17.27;50.84;100290.41;1685101;83;21206;-84
2022/04/27 10:35:27;;;;;;;1.80;1.42;;;;;;;17.40;49.56;100297.77;1688124;83;21190;-85
2022/04/27 10:38:35;;;;;;;1.47;1.37;;;;;;;17.46;46.91;100317.09;1687040;83;21199;-84
2022/04/27 10:41:41;;;;;;;3.55;1.40;;;;;;;17.48;48.86;100303.88;1684189;83;21785;-84
2022/04/27 10:44:57;;;;;;;2.12;1.55;;;;;;;17.48;49.45;100291.98;1681445;85;21155;-85
2022/04/27 10:47:49;;;;;;;1.75;1.50;;;;;;;17.46;50.12;100295.52;1674384;85;21207;-86
2022/04/27 10:50:38;;;;;;;2.87;1.40;;;;;;;17.47;49.31;100292.52;1683304;83;21182;-83
2022/04/27 10:53:50;;;;;;;3.45;1.50;;;;;;;17.45;49.64;100312.61;1681020;85;21261;-84
2022/04/27 10:56:57;;;;;;;2.17;1.75;;;;;;;17.41;48.56;100293.41;1711361;83;21253;-83
2022/04/27 11:00:08;;;;;;;2.50;1.98;;;;;;;17.38;49.52;100307.67;1716866;83;21513;-84
2022/04/27 11:03:25;;;;;;;2.25;1.32;;;;;;;17.39;48.64;100296.91;1695331;83;21238;-84
2022/04/27 11:06:31;;;;;;;1.98;1.77;;;;;;;17.41;49.62;100290.65;1689358;83;21203;-85
2022/04/27 11:10:15;;;;;;;9.28;1.57;;;;;;;17.45;48.75;100296.02;1709896;82;21249;-84
2022/04/27 11:13:25;;;;;;;2.35;1.67;;;;;;;17.37;47.64;100316.50;1692086;83;21212;-79
2022/04/27 11:16:32;;;;;;;1.90;1.40;;;;;;;17.22;48.49;100309.54;1711997;82;21200;-78
2022/04/27 11:19:44;;;;;;;2.72;1.47;;;;;;;17.23;48.76;100309.34;1708475;83;21232;-79
2022/04/27 11:22:50;;;;;;;1.80;1.57;;;;;;;17.30;48.67;100310.14;1712845;82;21283;-79
2022/04/27 11:25:59;;;;;;;2.60;1.90;;;;;;;17.40;48.66;100302.75;1717386;83;21361;-79
2022/04/27 11:29:04;;;;;;;3.27;1.80;;;;;;;17.43;48.12;100306.47;1709720;83;21884;-79
2022/04/27 11:32:12;;;;;;;2.02;1.57;;;;;;;17.48;49.90;100308.03;1712288;82;21228;-80
2022/04/27 11:35:17;;;;;;;3.05;1.80;;;;;;;17.60;48.44;100302.66;1708645;82;21232;-80
2022/04/27 11:38:27;;;;;;;2.33;1.42;;;;;;;17.74;48.25;100291.84;1706918;81;21813;-80
2022/04/27 11:41:33;;;;;;;3.00;1.60;;;;;;;17.84;47.34;100293.58;1711736;82;21259;-79
2022/04/27 11:44:37;;;;;;;3.62;2.15;;;;;;;17.81;47.11;100294.02;1706967;82;21168;-79
2022/04/27 11:47:43;;;;;;;7.83;1.52;;;;;;;17.72;46.40;100300.02;1701532;82;21510;-79
2022/04/27 11:50:49;;;;;;;3.20;1.80;;;;;;;17.60;46.11;100289.67;1706890;82;21781;-79
2022/04/27 11:53:55;;;;;;;2.98;1.60;;;;;;;17.55;46.93;100293.64;1714266;82;21216;-79
2022/04/27 11:57:12;;;;;;;5.92;1.70;;;;;;;17.56;47.03;100295.34;1706737;82;21172;-79
2022/04/27 12:00:17;;;;;;;1.72;1.30;;;;;;;17.58;46.30;100295.94;1710129;83;21188;-79
2022/04/27 12:03:25;;;;;;;2.92;1.95;;;;;;;17.61;44.73;100295.52;1701808;82;21211;-78
2022/04/27 12:06:31;;;;;;;1.95;1.40;;;;;;;17.59;46.36;100287.95;1710566;82;21176;-79
2022/04/27 12:09:37;;;;;;;3.15;1.67;;;;;;;17.64;45.09;100294.20;1712506;83;21205;-80
2022/04/27 12:12:46;;;;;;;3.25;1.20;;;;;;;17.65;46.24;100285.39;1702011;82;21215;-79
2022/04/27 12:15:54;;;;;;;2.15;1.57;;;;;;;17.69;43.70;100296.30;1684266;82;21225;-79
2022/04/27 12:19:01;;;;;;;3.87;1.50;;;;;;;17.68;45.47;100289.92;1702873;82;21595;-79
2022/04/27 12:22:22;;;;;;;3.10;1.82;;;;;;;17.61;45.06;100278.92;1710921;82;21488;-79
2022/04/27 12:25:28;;;;;;;2.95;1.82;;;;;;;17.52;45.34;100285.78;1701642;82;21873;-85
2022/04/27 12:28:35;;;;;;;2.25;1.35;;;;;;;17.51;44.73;100287.39;1709099;82;21189;-79
2022/04/27 12:31:40;;;;;;;3.70;1.62;;;;;;;17.60;44.74;100282.77;1706603;82;21236;-85
2022/04/27 12:38:19;;;;;;;2.42;1.30;;;;;;;17.56;44.87;100296.72;1698823;83;21216;-84
2022/04/27 12:41:45;;;;;;;2.83;1.40;;;;;;;17.45;45.29;100284.96;1715110;83;21782;-85
2022/04/27 12:44:50;;;;;;;1.90;1.35;;;;;;;17.45;45.42;100286.88;1707762;83;21224;-79
2022/04/27 12:47:57;;;;;;;5.10;1.80;;;;;;;17.43;44.48;100295.41;1710538;82;21799;-79
2022/04/27 12:51:03;;;;;;;2.35;1.47;;;;;;;17.36;45.51;100294.58;1686824;83;21761;-79
2022/04/27 12:54:10;;;;;;;1.90;1.67;;;;;;;17.29;45.59;100298.78;1714355;82;21787;-79
2022/04/27 12:57:16;;;;;;;4.65;1.80;;;;;;;17.26;45.61;100297.83;1701616;82;21259;-78
2022/04/27 13:00:26;;;;;;;3.30;1.70;;;;;;;17.24;44.51;100296.37;1676147;84;21777;-78
2022/04/27 13:03:42;;;;;;;3.17;1.57;;;;;;;17.24;45.04;100297.75;1674458;84;21821;-78
2022/04/27 13:06:47;;;;;;;2.47;1.60;;;;;;;17.30;45.31;100299.08;1672443;84;21584;-78
2022/04/27 13:13:20;;;;;;;1.60;1.27;;;;;;;17.42;44.90;100299.25;1674514;85;21191;-78
2022/04/27 13:16:26;;;;;;;2.05;1.45;;;;;;;17.46;44.83;100291.37;1671051;84;21173;-78
2022/04/27 13:19:33;;;;;;;3.12;1.37;;;;;;;17.45;43.18;100290.48;1673005;84;21543;-78
2022/04/27 13:22:33;;;;;;;2.00;1.20;;;;;;;17.47;42.91;100292.52;1672814;84;21224;-78
2022/04/27 13:25:25;;;;;;;6.92;1.60;;;;;;;17.44;44.91;100297.09;1676343;84;21202;-84
2022/04/27 13:28:12;;;;;;;8.28;1.65;;;;;;;17.45;43.98;100304.31;1674852;85;21244;-84
2022/04/27 13:31:16;;;;;;;;;;;;;;;17.44;43.18;100297.63;1674292;85;21196;-84
2022/04/27 13:34:23;;;;;;;3.90;1.45;;;;;;;17.38;44.10;100297.45;1672989;85;20249;-84
2022/04/27 13:37:29;;;;;;;3.25;1.75;;;;;;;17.35;44.65;100292.89;1695678;83;21211;-84
2022/04/27 13:40:34;;;;;;;4.97;1.00;;;;;;;17.32;43.88;100285.91;1690365;84;21777;-78
2022/04/27 13:43:41;;;;;;;6.55;1.40;;;;;;;17.31;41.15;100288.88;1668538;84;21228;-79
2022/04/27 13:46:46;;;;;;;1.87;0.90;;;;;;;17.27;41.11;100287.64;1665858;84;21200;-79
2022/04/27 13:49:53;;;;;;;1.55;1.07;;;;;;;17.27;40.80;100298.70;1676212;85;21876;-79
2022/04/27 13:53:01;;;;;;;1.65;1.10;;;;;;;17.25;41.72;100298.90;1664065;84;21183;-80
2022/04/27 13:56:06;;;;;;;3.67;0.88;;;;;;;17.22;40.56;100295.22;1688504;83;21615;-79
2022/04/27 13:59:12;;;;;;;1.45;0.80;;;;;;;17.21;40.14;100294.87;1682286;83;21259;-78
2022/04/27 14:02:19;;;;;;;1.65;1.02;;;;;;;17.20;40.20;100290.96;1720889;82;21524;-79
2022/04/27 14:05:26;;;;;;;7.75;0.93;;;;;;;17.18;40.62;100291.73;1718827;83;21220;-79
2022/04/27 14:08:33;;;;;;;3.77;0.88;;;;;;;17.16;40.77;100289.16;1715895;83;21280;-79
2022/04/27 14:15:04;;;;;;;2.47;1.10;;;;;;;17.17;40.43;100287.24;1718375;83;21169;-80
2022/04/27 14:18:11;;;;;;;0.62;0.60;;;;;;;17.14;38.53;100289.09;1717042;83;21232;-79
2022/04/27 14:21:16;;;;;;;2.90;0.82;;;;;;;17.12;38.59;100292.05;1719438;83;21757;-79
2022/04/27 14:24:28;;;;;;;1.92;0.78;;;;;;;17.08;39.58;100297.19;1716845;83;21775;-79
2022/04/27 14:27:34;;;;;;;3.55;1.10;;;;;;;17.05;39.23;100294.01;1688514;83;21252;-85
2022/04/27 14:30:41;;;;;;;1.27;0.68;;;;;;;16.99;39.22;100284.69;1718454;83;21271;-84
2022/04/27 14:33:39;;;;;;;0.80;0.75;;;;;;;16.94;38.90;100283.11;1716360;82;21217;-85
2022/04/27 14:36:45;;;;;;;2.62;1.32;;;;;;;16.92;38.87;100287.99;1712792;82;21174;-85
2022/04/27 14:39:51;;;;;;;2.40;0.93;;;;;;;16.90;40.01;100299.81;1719311;83;21176;-84
2022/04/27 14:42:57;;;;;;;6.72;1.10;;;;;;;16.91;40.42;100296.51;1689436;83;21252;-84
2022/04/27 14:46:03;;;;;;;2.17;0.80;;;;;;;16.88;39.47;100299.16;1690271;85;21295;-84
2022/04/27 14:49:08;;;;;;;2.95;1.17;;;;;;;16.83;39.12;100299.81;1706573;83;21189;-83
2022/04/27 14:52:14;;;;;;;3.50;1.22;;;;;;;16.78;40.01;100296.02;1718596;83;21279;-85
2022/04/27 14:55:13;;;;;;;6.53;1.90;;;;;;;16.74;41.65;100300.27;1718961;83;21162;-85
2022/04/27 14:58:05;;;;;;;2.30;1.15;;;;;;;16.71;41.90;100306.22;1704823;82;21743;-85
2022/04/27 15:00:53;;;;;;;3.30;1.57;;;;;;;16.67;40.35;100304.95;1721146;83;21213;-85
2022/04/27 15:03:46;;;;;;;2.20;1.40;;;;;;;16.62;41.72;100300.07;1716249;83;21578;-85
2022/04/27 15:06:52;;;;;;;2.98;1.60;;;;;;;16.57;42.95;100313.68;1699495;82;21229;-85
2022/04/27 15:09:59;;;;;;;5.47;1.85;;;;;;;16.51;42.96;100315.89;1716149;83;21816;-84
2022/04/27 15:13:05;;;;;;;4.60;1.50;;;;;;;16.47;43.00;100311.89;1720264;82;21649;-84